Página principal
METAR-TAF:

METAR-TAF

Aeroportos :

Xangai-Pudong, China

Aeroporto Internacional de Xangai Pudong

latitude: 31-07N, longitude: 121-46E, altura: 4 m

Observação actual do tempo

O boletim foi feito há 44 minutos, às 06:30 UTC
Vento 14 kt de nor-nordeste
Temperatura 20°C
Humidade 40%
Pressão 1017 hPa
Visibilidade 10 km ou mais
sem nuvens abaixo de 1500 metros e sem cumulonimbus

METAR: ZSPD 270630Z 03007MPS CAVOK 20/06 Q1017 NOSIG

Hora: 15:14 (07:14 UTC)

Previsão

O boletim foi feito há 3 horas e 46 minutos, às 03:28 UTC
Previsão válida de 27 às 06 UTC a 28 às 06 UTC
Vento 10 kt de norte
Visibilidade: 5000 m
Nuvens dispersasa uma altura de 2000 ft
neblina
Tornando-se
de 27 às 06 UTC a 27 às 08 UTC
Vento 8 kt de es-nordeste
Tornando-se
de 27 às 12 UTC a 27 às 14 UTC
Vento 8 kt de su-sudoeste

TAF: ZSPD 270328Z 2706/2806 36005MPS 5000 BR SCT020 TX22/2706Z TN12/2721Z BECMG 2706/2708 06004MPS BECMG 2712/2714 20004MPS

Observações e previsões do tempo de mais de 4000 aeroportos (mensagens METAR e TAF).

As estações disponíveis são os pontos amarelos e vermelhos sobre o mapa.

Mova o rato sobre o mapa para ver o nome da estação.

Depois clique no ponto para visualizar as observações e previsões meteorológicas.

Para alterar o mapa : clique nos botões verdes com uma cruz preta para aumentar o zoom; no botão verde com uma pitada de zoom; ou nas setas verdes para mapas adjacentes.


METAR-TAF: